Time;durP1;ratioP1;P1;durP2;ratioP2;P2;SDS_P1;SDS_P2;PMS_P1;PMS_P2;Temp;Humidity;BMP_temperature;BMP_pressure;BME280_temperature;BME280_humidity;BME280_pressure;Samples;Min_cycle;Max_cycle;Signal;HPM_P1;HPM_P2
2023/02/22 00:00:18;;;;;;;28.38;20.10;;;;;;;5.63;100.00;101543.66;5090968;28;20341;-36
2023/02/22 00:02:47;;;;;;;26.80;19.50;;;;;;;5.66;100.00;101543.28;5090443;28;20128;-36
2023/02/22 00:05:15;;;;;;;25.48;20.30;;;;;;;5.51;100.00;101536.19;5090873;28;20051;-36
2023/02/22 00:07:43;;;;;;;23.38;18.13;;;;;;;5.55;100.00;101549.06;5089959;28;20509;-36
2023/02/22 00:10:12;;;;;;;23.83;18.98;;;;;;;5.42;100.00;101533.59;5089971;28;20063;-35
2023/02/22 00:12:41;;;;;;;23.85;18.25;;;;;;;5.38;100.00;101540.34;5085728;28;20033;-36
2023/02/22 00:15:07;;;;;;;24.02;18.02;;;;;;;5.49;100.00;101543.59;5076378;28;20115;-37
2023/02/22 00:17:32;;;;;;;;;;;;;;;5.53;100.00;101547.59;5076975;28;20334;-37
2023/02/22 00:19:58;;;;;;;23.52;18.60;;;;;;;5.42;100.00;101547.00;5075876;28;19953;-37
2023/02/22 00:22:23;;;;;;;24.87;18.80;;;;;;;5.40;100.00;101551.72;5076477;28;20033;-36
2023/02/22 00:24:49;;;;;;;24.67;18.77;;;;;;;5.22;100.00;101513.66;5076751;28;20250;-36
2023/02/22 00:27:15;;;;;;;23.43;17.13;;;;;;;5.46;100.00;101549.31;5076446;28;20080;-36
2023/02/22 00:29:45;;;;;;;21.67;16.75;;;;;;;5.43;100.00;101537.94;5076726;28;20367;-36
2023/02/22 00:32:10;;;;;;;25.63;17.77;;;;;;;5.33;100.00;101526.63;5076288;28;20112;-36
2023/02/22 00:34:35;;;;;;;23.70;18.48;;;;;;;5.45;100.00;101537.75;5076025;28;20470;-37
2023/02/22 00:37:03;;;;;;;22.67;17.63;;;;;;;5.34;100.00;101530.16;5075703;28;20029;-37
2023/02/22 00:39:29;;;;;;;27.38;19.65;;;;;;;5.42;100.00;101530.91;5076271;28;20081;-37
2023/02/22 00:41:54;;;;;;;26.38;19.65;;;;;;;5.38;100.00;101529.59;5075777;28;20021;-37
2023/02/22 00:44:20;;;;;;;23.45;18.15;;;;;;;5.33;100.00;101518.59;5076154;28;20452;-37
2023/02/22 00:46:46;;;;;;;24.45;19.05;;;;;;;5.40;100.00;101522.19;5075844;28;20024;-37
2023/02/22 00:49:11;;;;;;;24.63;18.38;;;;;;;5.38;100.00;101521.56;5075763;28;20076;-37
2023/02/22 00:51:37;;;;;;;25.53;19.03;;;;;;;5.42;100.00;101524.72;5075761;28;20024;-37
2023/02/22 00:54:04;;;;;;;27.00;19.38;;;;;;;5.38;100.00;101524.25;5075944;28;20056;-37
2023/02/22 00:56:33;;;;;;;25.98;20.17;;;;;;;5.37;100.00;101533.31;5075599;28;20024;-37
2023/02/22 00:58:59;;;;;;;27.15;20.17;;;;;;;5.34;100.00;101528.28;5075517;28;20055;-37
2023/02/22 01:01:25;;;;;;;27.95;20.50;;;;;;;5.32;100.00;101524.97;5076290;28;20040;-37
2023/02/22 01:03:51;;;;;;;25.80;20.02;;;;;;;5.29;100.00;101516.44;5075833;28;20405;-37
2023/02/22 01:06:16;;;;;;;24.70;19.10;;;;;;;5.36;100.00;101512.00;5076001;28;20028;-36
2023/02/22 01:08:46;;;;;;;25.30;18.83;;;;;;;5.42;100.00;101525.56;5075406;28;20052;-37
2023/02/22 01:11:12;;;;;;;28.70;19.88;;;;;;;5.42;100.00;101517.50;5076168;28;20356;-37
2023/02/22 01:13:38;;;;;;;26.15;20.02;;;;;;;5.43;100.00;101512.97;5075222;28;20024;-37
2023/02/22 01:16:07;;;;;;;25.50;19.55;;;;;;;5.36;100.00;101509.31;5075325;28;20111;-37
2023/02/22 01:18:34;;;;;;;28.63;20.35;;;;;;;5.33;100.00;101504.34;5075409;28;20025;-37
2023/02/22 01:21:00;;;;;;;26.98;19.17;;;;;;;5.36;100.00;101498.59;5075935;28;20024;-37
2023/02/22 01:23:25;;;;;;;;;;;;;;;5.45;100.00;101510.94;5075797;28;20065;-37
2023/02/22 01:25:51;;;;;;;26.30;19.73;;;;;;;5.30;100.00;101496.66;5074343;28;20245;-37
2023/02/22 01:28:16;;;;;;;23.93;17.83;;;;;;;5.24;100.00;101500.88;5074971;28;20051;-37
2023/02/22 01:30:42;;;;;;;27.27;19.10;;;;;;;5.13;100.00;101494.09;5074956;28;20046;-37
2023/02/22 01:33:08;;;;;;;23.75;18.85;;;;;;;5.21;100.00;101503.91;5074857;28;20036;-37
2023/02/22 01:35:37;;;;;;;26.13;19.67;;;;;;;5.19;100.00;101497.91;5075388;28;20073;-37
2023/02/22 01:38:03;;;;;;;27.00;19.98;;;;;;;5.20;100.00;101494.22;5074401;28;20031;-37
2023/02/22 01:40:34;;;;;;;25.85;19.25;;;;;;;5.22;100.00;101494.88;5074535;28;20029;-37
2023/02/22 01:43:03;;;;;;;28.38;20.55;;;;;;;5.16;100.00;101495.56;5074693;28;20032;-37
2023/02/22 01:45:28;;;;;;;26.73;20.20;;;;;;;5.16;100.00;101488.38;5075258;28;20457;-34
2023/02/22 01:48:05;;;;;;;28.30;20.80;;;;;;;5.10;100.00;101488.25;5075091;28;20031;-35
2023/02/22 01:50:36;;;;;;;31.23;22.15;;;;;;;5.15;100.00;101486.72;5074782;28;20024;-35
2023/02/22 01:53:03;;;;;;;29.83;21.63;;;;;;;5.11;100.00;101484.56;5074771;28;20081;-36
2023/02/22 01:55:30;;;;;;;29.33;20.85;;;;;;;5.13;100.00;101488.75;5075003;28;20444;-35
2023/02/22 01:57:56;;;;;;;29.33;21.60;;;;;;;5.01;100.00;101473.25;5074639;28;20356;-35
2023/02/22 02:00:23;;;;;;;30.77;22.35;;;;;;;5.09;100.00;101482.06;5074423;28;20032;-35
2023/02/22 02:02:57;;;;;;;27.45;20.83;;;;;;;5.13;100.00;101482.56;5074893;28;20048;-36
2023/02/22 02:05:24;;;;;;;31.60;22.15;;;;;;;5.14;100.00;101470.81;5075098;28;20028;-35
2023/02/22 02:07:50;;;;;;;29.65;21.08;;;;;;;5.18;100.00;101474.81;5073900;28;20585;-36
2023/02/22 02:10:16;;;;;;;;;;;;;;;5.28;100.00;101474.56;5074928;28;20028;-36
2023/02/22 02:12:45;;;;;;;27.85;20.20;;;;;;;5.22;100.00;101470.75;5074386;28;19908;-36
2023/02/22 02:15:19;;;;;;;27.55;20.42;;;;;;;5.19;100.00;101464.91;5074412;28;20024;-36
2023/02/22 02:17:47;;;;;;;33.72;23.33;;;;;;;5.13;100.00;101458.44;5074069;28;20031;-36
2023/02/22 02:20:21;;;;;;;30.05;20.58;;;;;;;5.16;100.00;101458.03;5074042;28;20044;-36
2023/02/22 02:22:53;;;;;;;32.53;22.42;;;;;;;5.17;100.00;101446.28;5073907;28;20025;-36
2023/02/22 02:25:39;;;;;;;33.05;23.17;;;;;;;5.13;100.00;101455.75;5074786;28;20062;-36
2023/02/22 02:28:20;;;;;;;34.40;23.65;;;;;;;5.13;100.00;101450.38;5074487;28;20016;-36
2023/02/22 02:31:10;;;;;;;37.13;24.83;;;;;;;5.13;100.00;101434.28;5073871;28;20452;-36
2023/02/22 02:33:47;;;;;;;36.63;24.70;;;;;;;5.07;100.00;101437.69;5074414;28;20031;-36
2023/02/22 02:36:12;;;;;;;;;;;;;;;5.16;100.00;101439.28;5074536;28;20016;-37
2023/02/22 02:38:54;;;;;;;34.70;23.35;;;;;;;5.07;100.00;101430.47;5073709;28;19904;-37
2023/02/22 02:41:27;;;;;;;36.78;25.52;;;;;;;4.94;100.00;101424.06;5074493;28;20024;-37
2023/02/22 02:44:10;;;;;;;41.05;24.92;;;;;;;4.99;100.00;101435.91;5073969;28;20024;-37
2023/02/22 02:46:55;;;;;;;40.65;24.45;;;;;;;5.01;100.00;101425.00;5074518;28;20035;-36
2023/02/22 02:49:35;;;;;;;58.38;25.58;;;;;;;4.96;100.00;101433.56;5074241;28;20031;-36
2023/02/22 02:52:03;;;;;;;61.03;25.55;;;;;;;4.81;100.00;101414.78;5073603;28;20476;-36
2023/02/22 02:54:29;;;;;;;44.60;26.55;;;;;;;4.90;100.00;101434.31;5073810;28;20064;-36
2023/02/22 02:56:56;;;;;;;41.83;26.90;;;;;;;4.95;100.00;101431.91;5073356;28;20029;-36
2023/02/22 02:59:35;;;;;;;45.80;26.63;;;;;;;4.99;100.00;101427.88;5073504;28;20032;-36
2023/02/22 03:02:19;;;;;;;40.67;26.25;;;;;;;4.94;100.00;101430.25;5073305;28;20093;-36
2023/02/22 03:05:14;;;;;;;47.78;26.90;;;;;;;5.00;100.00;101423.34;5074053;28;20063;-36
2023/02/22 03:08:00;;;;;;;51.47;26.40;;;;;;;4.98;100.00;101420.00;5073740;28;20491;-36
2023/02/22 03:10:53;;;;;;;49.17;25.95;;;;;;;5.03;100.00;101425.66;5073447;28;20483;-36
2023/02/22 03:13:35;;;;;;;116.82;29.05;;;;;;;4.94;100.00;101416.84;5073802;28;20028;-36
2023/02/22 03:16:25;;;;;;;54.55;26.30;;;;;;;4.94;100.00;101413.34;5073777;28;20024;-37
2023/02/22 03:19:15;;;;;;;91.45;28.10;;;;;;;4.89;100.00;101412.03;5073350;28;20077;-36
2023/02/22 03:22:01;;;;;;;145.43;30.98;;;;;;;4.75;100.00;101393.22;5073376;28;20024;-36
2023/02/22 03:24:51;;;;;;;80.93;29.10;;;;;;;4.82;100.00;101400.34;5073890;28;20056;-36
2023/02/22 03:27:20;;;;;;;85.22;28.73;;;;;;;4.83;100.00;101395.81;5073393;28;20017;-36
2023/02/22 03:29:50;;;;;;;71.15;29.38;;;;;;;4.82;100.00;101392.31;5072200;28;20017;-36
2023/02/22 03:32:21;;;;;;;112.53;29.50;;;;;;;4.81;100.00;101395.19;5073530;28;20034;-36
2023/02/22 03:34:56;;;;;;;75.00;27.73;;;;;;;4.85;100.00;101397.31;5073187;28;20504;-37
2023/02/22 03:37:33;;;;;;;159.30;29.33;;;;;;;4.80;100.00;101390.84;5073466;28;20043;-36
2023/02/22 03:40:01;;;;;;;153.38;31.52;;;;;;;4.80;100.00;101390.84;5074085;28;20471;-36
2023/02/22 03:42:36;;;;;;;98.63;28.85;;;;;;;4.82;100.00;101386.13;5072761;28;20428;-36
2023/02/22 03:45:03;;;;;;;115.15;29.67;;;;;;;4.80;100.00;101383.63;5073373;28;20025;-36
2023/02/22 03:47:38;;;;;;;94.10;29.42;;;;;;;4.80;100.00;101369.41;5073037;28;20028;-37
2023/02/22 03:50:10;;;;;;;90.13;30.52;;;;;;;4.80;100.00;101372.09;5077133;28;20028;-37
2023/02/22 03:52:36;;;;;;;60.55;31.27;;;;;;;4.83;100.00;101369.88;5077689;28;20348;-37
2023/02/22 03:55:03;;;;;;;116.47;31.55;;;;;;;4.81;100.00;101368.38;5077081;28;20030;-37
2023/02/22 03:57:34;;;;;;;125.63;31.30;;;;;;;4.77;100.00;101364.41;5077515;28;20028;-37
2023/02/22 03:59:59;;;;;;;83.63;30.23;;;;;;;4.77;100.00;101354.50;5076369;28;20475;-36
2023/02/22 04:02:25;;;;;;;109.25;30.45;;;;;;;4.79;100.00;101360.53;5077470;28;20053;-36
2023/02/22 04:04:50;;;;;;;76.73;28.70;;;;;;;4.82;100.00;101352.13;5075354;28;20036;-37
2023/02/22 04:07:17;;;;;;;78.23;29.20;;;;;;;4.80;100.00;101350.66;5076555;28;20297;-35
2023/02/22 04:09:42;;;;;;;109.25;30.02;;;;;;;4.81;100.00;101350.47;5076224;28;20395;-37
2023/02/22 04:12:08;;;;;;;71.23;29.43;;;;;;;4.85;100.00;101343.72;5076442;28;20039;-36
2023/02/22 04:14:33;;;;;;;118.97;29.17;;;;;;;4.77;100.00;101343.78;5076159;28;20036;-37
2023/02/22 04:16:59;;;;;;;96.87;26.57;;;;;;;4.77;100.00;101343.78;5076386;28;20028;-37
2023/02/22 04:19:25;;;;;;;76.10;26.70;;;;;;;4.79;100.00;101346.31;5076088;28;20078;-37
2023/02/22 04:21:51;;;;;;;87.05;25.98;;;;;;;4.72;100.00;101330.09;5076473;28;20032;-37
2023/02/22 04:24:16;;;;;;;60.17;26.67;;;;;;;4.72;100.00;101324.75;5076863;28;20121;-38
2023/02/22 04:26:42;;;;;;;96.37;23.90;;;;;;;4.65;100.00;101313.94;5075904;28;20537;-36
2023/02/22 04:29:07;;;;;;;58.78;22.50;;;;;;;4.72;100.00;101323.91;5076512;28;20024;-36
2023/02/22 04:31:33;;;;;;;80.20;22.33;;;;;;;4.58;100.00;101318.31;5076374;28;20040;-36
2023/02/22 04:33:59;;;;;;;71.95;21.05;;;;;;;4.51;100.00;101311.22;5076372;28;20029;-36
2023/02/22 04:36:26;;;;;;;71.22;20.00;;;;;;;4.49;100.00;101316.75;5076250;28;20066;-37
2023/02/22 04:38:52;;;;;;;80.47;21.10;;;;;;;4.39;100.00;101319.66;5075907;28;20043;-35
2023/02/22 04:41:17;;;;;;;63.25;20.13;;;;;;;4.38;100.00;101320.66;5076212;28;20025;-36
2023/02/22 04:43:43;;;;;;;50.33;18.75;;;;;;;4.41;100.00;101311.44;5075848;28;20116;-35
2023/02/22 04:46:08;;;;;;;57.78;19.10;;;;;;;4.36;100.00;101305.81;5076211;28;20024;-36
2023/02/22 04:48:34;;;;;;;39.90;19.13;;;;;;;4.42;100.00;101323.81;5075556;28;20472;-37
2023/02/22 04:50:59;;;;;;;51.47;19.63;;;;;;;4.41;100.00;101315.97;5075859;28;20360;-35
2023/02/22 04:53:24;;;;;;;49.97;20.77;;;;;;;4.46;100.00;101316.28;5075695;28;20027;-36
2023/02/22 04:55:50;;;;;;;42.93;20.00;;;;;;;4.47;100.00;101313.41;5075480;28;20251;-37
2023/02/22 04:58:15;;;;;;;56.37;19.77;;;;;;;4.45;100.00;101317.28;5075313;28;20043;-37
2023/02/22 05:00:41;;;;;;;45.33;18.43;;;;;;;4.47;100.00;101317.94;5076122;28;20067;-37
2023/02/22 05:03:06;;;;;;;50.13;19.67;;;;;;;4.43;100.00;101321.97;5075979;28;20044;-36
2023/02/22 05:05:31;;;;;;;52.57;19.63;;;;;;;4.39;100.00;101308.97;5075303;28;20025;-36
2023/02/22 05:07:57;;;;;;;44.20;18.03;;;;;;;4.41;100.00;101315.97;5075992;28;20031;-36
2023/02/22 05:10:23;;;;;;;38.33;18.30;;;;;;;4.39;100.00;101308.97;5075975;28;20035;-36
2023/02/22 05:12:49;;;;;;;35.55;17.30;;;;;;;4.45;100.00;101312.75;5075255;28;20028;-36
2023/02/22 05:15:16;;;;;;;48.83;18.23;;;;;;;4.44;100.00;101304.88;5075001;28;20028;-36
2023/02/22 05:17:42;;;;;;;35.20;19.20;;;;;;;4.41;100.00;101289.19;5075150;28;20021;-37
2023/02/22 05:20:16;;;;;;;26.37;18.37;;;;;;;4.47;100.00;101300.00;5075172;28;20069;-37
2023/02/22 05:22:41;;;;;;;44.50;18.58;;;;;;;4.43;100.00;101296.03;5075113;28;20028;-37
2023/02/22 05:25:07;;;;;;;42.80;18.50;;;;;;;4.44;100.00;101303.06;5075174;28;20020;-37
2023/02/22 05:27:32;;;;;;;33.67;17.95;;;;;;;4.41;100.00;101294.56;5075059;28;20476;-37
2023/02/22 05:29:58;;;;;;;32.10;18.73;;;;;;;4.49;100.00;101292.66;5074761;28;20027;-36
2023/02/22 05:32:23;;;;;;;31.95;19.05;;;;;;;4.50;100.00;101296.16;5074888;28;20024;-36
2023/02/22 05:34:49;;;;;;;28.37;17.23;;;;;;;4.57;100.00;101291.72;5075537;28;20033;-37
2023/02/22 05:37:14;;;;;;;34.97;18.33;;;;;;;4.51;100.00;101281.75;5074874;28;20028;-37
2023/02/22 05:39:39;;;;;;;25.17;18.00;;;;;;;4.57;100.00;101289.06;5074872;28;20017;-36
2023/02/22 05:42:05;;;;;;;29.20;18.67;;;;;;;4.60;100.00;101280.66;5074360;28;20069;-36
2023/02/22 05:44:30;;;;;;;30.83;17.33;;;;;;;4.60;100.00;101275.31;5074726;28;20029;-36
2023/02/22 05:46:55;;;;;;;31.47;18.73;;;;;;;4.62;100.00;101275.94;5074654;28;20031;-37
2023/02/22 05:49:21;;;;;;;38.05;20.50;;;;;;;4.56;100.00;101266.78;5074628;28;20024;-37
2023/02/22 05:51:46;;;;;;;37.77;19.93;;;;;;;4.60;100.00;101262.75;5075379;28;20028;-37
2023/02/22 05:54:11;;;;;;;36.10;19.30;;;;;;;4.61;100.00;101261.72;5074804;28;20467;-37
2023/02/22 05:56:37;;;;;;;38.63;19.57;;;;;;;4.58;100.00;101254.03;5074444;28;20471;-46
2023/02/22 05:59:02;;;;;;;29.37;18.80;;;;;;;4.53;100.00;101245.72;5074206;28;20371;-35
2023/02/22 06:01:28;;;;;;;31.00;19.47;;;;;;;4.57;100.00;101251.56;5074122;28;20478;-36
2023/02/22 06:03:53;;;;;;;34.03;18.93;;;;;;;4.49;100.00;101233.72;5074349;28;20266;-36
2023/02/22 06:06:19;;;;;;;27.00;18.87;;;;;;;4.57;100.00;101247.03;5074388;28;20028;-36
2023/02/22 06:08:44;;;;;;;32.83;19.10;;;;;;;4.59;100.00;101244.19;5074508;28;20112;-36
2023/02/22 06:11:10;;;;;;;29.88;19.38;;;;;;;4.59;100.00;101244.19;5074028;28;20456;-36
2023/02/22 06:13:36;;;;;;;44.72;20.40;;;;;;;4.53;100.00;101228.81;5074442;28;20027;-35
2023/02/22 06:16:03;;;;;;;31.13;19.40;;;;;;;4.53;100.00;101231.50;5074969;28;20039;-35
2023/02/22 06:18:30;;;;;;;29.85;19.75;;;;;;;4.49;100.00;101219.47;5074281;28;20033;-35
2023/02/22 06:20:56;;;;;;;36.88;19.92;;;;;;;4.54;100.00;101227.81;5074223;28;20066;-35
2023/02/22 06:23:21;;;;;;;34.80;20.75;;;;;;;4.55;100.00;101219.59;5074024;28;20029;-36
2023/02/22 06:25:47;;;;;;;30.00;19.70;;;;;;;4.60;100.00;101216.38;5074316;28;20021;-35
2023/02/22 06:28:13;;;;;;;32.50;20.63;;;;;;;4.49;100.00;101198.06;5073910;28;20467;-35
2023/02/22 06:30:39;;;;;;;32.75;21.30;;;;;;;4.56;100.00;101217.75;5073947;28;20353;-36
2023/02/22 06:33:05;;;;;;;32.95;21.63;;;;;;;4.54;100.00;101209.91;5073821;28;20048;-36
2023/02/22 06:35:30;;;;;;;34.13;22.10;;;;;;;4.59;100.00;101209.38;5073882;28;20443;-36
2023/02/22 06:37:55;;;;;;;41.90;23.87;;;;;;;4.61;100.00;101218.88;5073766;28;20021;-36
2023/02/22 06:40:21;;;;;;;38.60;23.83;;;;;;;4.61;100.00;101216.19;5073833;28;20142;-36
2023/02/22 06:42:48;;;;;;;42.10;23.70;;;;;;;4.56;100.00;101197.16;5074155;28;20333;-36
2023/02/22 06:45:16;;;;;;;44.60;22.65;;;;;;;4.64;100.00;101206.97;5074553;28;20436;-36
2023/02/22 06:47:41;;;;;;;37.13;23.45;;;;;;;4.53;100.00;101186.78;5074443;28;20143;-36
2023/02/22 06:50:17;;;;;;;40.17;23.77;;;;;;;4.65;100.00;101217.50;5073812;28;20167;-36
2023/02/22 06:52:42;;;;;;;38.80;23.52;;;;;;;4.67;100.00;101209.25;5073685;28;20107;-36
2023/02/22 06:55:08;;;;;;;39.78;23.10;;;;;;;4.69;100.00;101211.78;5073974;28;20095;-36
2023/02/22 06:57:33;;;;;;;39.70;23.33;;;;;;;4.67;100.00;101211.94;5073889;28;20428;-36
2023/02/22 06:59:58;;;;;;;43.87;26.13;;;;;;;4.68;100.00;101210.91;5073593;28;20390;-36
2023/02/22 07:02:24;;;;;;;42.27;24.97;;;;;;;4.72;100.00;101219.44;5073802;28;20076;-36
2023/02/22 07:04:49;;;;;;;43.53;25.10;;;;;;;4.71;100.00;101215.09;5073900;28;20029;-36
2023/02/22 07:07:14;;;;;;;41.83;24.83;;;;;;;4.75;100.00;101219.06;5073494;28;20441;-36
2023/02/22 07:09:40;;;;;;;37.67;23.63;;;;;;;4.76;100.00;101229.59;5073860;28;20027;-36
2023/02/22 07:12:06;;;;;;;39.47;23.90;;;;;;;4.79;100.00;101226.56;5073516;28;20162;-36
2023/02/22 07:14:32;;;;;;;44.72;26.33;;;;;;;4.79;100.00;101234.59;5073458;28;20052;-36
2023/02/22 07:16:57;;;;;;;39.97;22.67;;;;;;;4.79;100.00;101229.25;5073408;28;20095;-36
2023/02/22 07:19:23;;;;;;;39.43;23.73;;;;;;;4.83;100.00;101235.91;5073471;28;20023;-36
2023/02/22 07:21:49;;;;;;;;;;;;;;;4.89;100.00;101232.47;5073717;28;20035;-36
2023/02/22 07:24:15;;;;;;;38.33;23.80;;;;;;;4.82;100.00;101231.53;5076941;28;20272;-36
2023/02/22 07:26:41;;;;;;;44.13;24.30;;;;;;;4.82;100.00;101239.56;5077131;28;20028;-37
2023/02/22 07:29:07;;;;;;;43.17;24.83;;;;;;;4.78;100.00;101232.09;5077337;28;20519;-36
2023/02/22 07:31:37;;;;;;;45.17;24.80;;;;;;;4.81;100.00;101232.56;5076965;28;20134;-36
2023/02/22 07:34:02;;;;;;;43.72;24.45;;;;;;;4.85;100.00;101233.03;5077201;28;20115;-36
2023/02/22 07:36:28;;;;;;;44.30;25.53;;;;;;;4.85;100.00;101233.03;5077438;28;20101;-36
2023/02/22 07:38:53;;;;;;;41.13;24.50;;;;;;;4.88;100.00;101232.63;5077149;28;20024;-36
2023/02/22 07:41:18;;;;;;;41.07;25.20;;;;;;;4.91;100.00;101237.66;5076502;28;20448;-36
2023/02/22 07:43:44;;;;;;;40.30;23.97;;;;;;;4.94;100.00;101239.97;5077009;28;20036;-36
2023/02/22 07:46:09;;;;;;;40.10;24.60;;;;;;;4.88;100.00;101230.81;5077412;28;20025;-36
2023/02/22 07:48:34;;;;;;;43.97;25.27;;;;;;;4.89;100.00;101243.19;5075701;28;20029;-36
2023/02/22 07:51:00;;;;;;;38.83;22.97;;;;;;;4.91;100.00;101248.38;5077234;28;20460;-36
2023/02/22 07:53:29;;;;;;;40.67;23.93;;;;;;;4.95;100.00;101254.19;5077106;28;20024;-36
2023/02/22 07:55:55;;;;;;;38.53;24.10;;;;;;;4.98;100.00;101253.81;5077391;28;20013;-36
2023/02/22 07:58:23;;;;;;;37.22;22.45;;;;;;;4.88;100.00;101238.88;5076730;28;20028;-36
2023/02/22 08:00:49;;;;;;;40.42;23.98;;;;;;;5.01;100.00;101258.81;5076735;28;20039;-36
2023/02/22 08:03:16;;;;;;;34.97;22.23;;;;;;;5.03;100.00;101252.28;5076434;28;20044;-37
2023/02/22 08:05:45;;;;;;;39.42;24.65;;;;;;;5.00;100.00;101258.00;5076666;28;20020;-36
2023/02/22 08:08:13;;;;;;;36.17;22.48;;;;;;;4.99;100.00;101244.78;5076563;28;20074;-36
2023/02/22 08:10:39;;;;;;;38.22;23.75;;;;;;;5.10;100.00;101255.03;5076855;28;20342;-36
2023/02/22 08:13:04;;;;;;;38.20;22.30;;;;;;;5.10;100.00;101260.41;5075248;28;20074;-36
2023/02/22 08:15:36;;;;;;;35.67;22.48;;;;;;;5.09;100.00;101243.47;5077026;28;20051;-36
2023/02/22 08:18:03;;;;;;;33.25;21.42;;;;;;;5.16;100.00;101247.06;5076688;28;20082;-36
2023/02/22 08:20:29;;;;;;;32.33;21.10;;;;;;;5.22;100.00;101244.66;5076316;28;20082;-36
2023/02/22 08:22:56;;;;;;;35.25;22.20;;;;;;;5.24;100.00;101235.44;5076000;28;20031;-36
2023/02/22 08:25:25;;;;;;;34.67;23.23;;;;;;;5.24;100.00;101238.09;5077129;28;20364;-36
2023/02/22 08:27:51;;;;;;;36.25;22.38;;;;;;;5.27;100.00;101224.34;5076166;28;20064;-36
2023/02/22 08:30:22;;;;;;;36.42;22.40;;;;;;;5.30;100.00;101225.81;5076794;28;20412;-37
2023/02/22 08:32:48;;;;;;;33.38;21.25;;;;;;;5.24;100.00;101215.81;5076397;28;20038;-37
2023/02/22 08:35:15;;;;;;;34.72;23.10;;;;;;;5.22;100.00;101215.16;5076212;28;20131;-37
2023/02/22 08:37:46;;;;;;;31.77;20.90;;;;;;;5.27;100.00;101220.81;5075739;28;20446;-37
2023/02/22 08:40:16;;;;;;;33.15;20.70;;;;;;;5.24;100.00;101211.28;5076653;28;20031;-35
2023/02/22 08:42:41;;;;;;;31.95;21.33;;;;;;;5.32;100.00;101216.56;5076140;28;20058;-36
2023/02/22 08:45:07;;;;;;;32.65;20.70;;;;;;;5.42;100.00;101219.78;5076270;28;20391;-36
2023/02/22 08:47:33;;;;;;;34.38;22.40;;;;;;;5.49;100.00;101227.91;5075850;28;20013;-37
2023/02/22 08:49:58;;;;;;;30.83;20.92;;;;;;;5.55;100.00;101223.63;5076145;28;20099;-36
2023/02/22 08:52:23;;;;;;;35.47;21.87;;;;;;;5.57;100.00;101224.28;5074265;28;20024;-36
2023/02/22 08:54:49;;;;;;;32.80;22.57;;;;;;;5.65;100.00;101226.84;5075811;28;20085;-36
2023/02/22 08:57:14;;;;;;;32.10;22.50;;;;;;;5.68;100.00;101221.09;5075431;28;20119;-36
2023/02/22 08:59:39;;;;;;;32.50;22.17;;;;;;;5.70;100.00;101221.72;5076227;28;20021;-36
2023/02/22 09:02:12;;;;;;;31.20;20.80;;;;;;;5.76;100.00;101217.44;5076435;28;20618;-37
2023/02/22 09:04:37;;;;;;;31.83;22.50;;;;;;;5.77;100.00;101213.78;5075890;28;20095;-35
2023/02/22 09:07:03;;;;;;;30.00;20.77;;;;;;;5.84;100.00;101211.97;5075522;28;20099;-36
2023/02/22 09:09:28;;;;;;;32.47;21.83;;;;;;;5.92;100.00;101222.63;5075214;28;20138;-35
2023/02/22 09:11:53;;;;;;;32.40;21.17;;;;;;;5.93;100.00;101214.38;5075975;28;20024;-36
2023/02/22 09:14:19;;;;;;;29.00;20.50;;;;;;;6.01;100.00;101208.06;5074746;28;20436;-37
2023/02/22 09:16:44;;;;;;;29.27;20.47;;;;;;;5.89;100.00;101186.22;5074937;28;20058;-37
2023/02/22 09:19:10;;;;;;;28.50;19.67;;;;;;;6.04;100.00;101201.47;5075889;28;20025;-37
2023/02/22 09:21:35;;;;;;;26.53;19.57;;;;;;;6.08;100.00;101192.81;5075131;28;20050;-36
2023/02/22 09:24:07;;;;;;;27.10;19.77;;;;;;;6.11;100.00;101188.94;5075518;28;20479;-36
2023/02/22 09:26:38;;;;;;;27.92;20.45;;;;;;;6.13;100.00;101193.06;5075127;28;20027;-36
2023/02/22 09:29:08;;;;;;;26.75;19.58;;;;;;;6.19;100.00;101194.97;5075331;28;20020;-36
2023/02/22 09:31:39;;;;;;;27.95;20.27;;;;;;;6.24;100.00;101191.72;5075263;28;20364;-36
2023/02/22 09:34:12;;;;;;;26.20;19.70;;;;;;;6.25;100.00;101196.09;5074926;28;20020;-36
2023/02/22 09:36:48;;;;;;;24.42;19.98;;;;;;;6.29;100.00;101178.53;5076047;28;20063;-36
2023/02/22 09:39:16;;;;;;;28.23;19.50;;;;;;;6.41;100.00;101184.22;5075178;28;20368;-36
2023/02/22 09:42:06;;;;;;;26.83;19.95;;;;;;;6.51;100.00;101181.19;5075060;28;20448;-36
2023/02/22 09:44:39;;;;;;;29.27;20.38;;;;;;;6.51;100.00;101182.03;5075257;28;20368;-36
2023/02/22 09:47:13;;;;;;;27.05;19.45;;;;;;;6.72;100.00;101179.25;5074750;28;20031;-37
2023/02/22 09:49:47;;;;;;;25.35;19.48;;;;;;;6.82;100.00;101178.06;5074705;28;20016;-36
2023/02/22 09:52:20;;;;;;;25.10;19.98;;;;;;;6.90;100.00;101173.38;5074920;28;20017;-36
2023/02/22 09:54:51;;;;;;;29.45;21.23;;;;;;;6.99;100.00;101173.22;5074183;28;20388;-36
2023/02/22 09:57:31;;;;;;;28.67;20.85;;;;;;;6.97;100.00;101170.72;5074515;28;20467;-37
2023/02/22 10:00:12;;;;;;;26.92;20.90;;;;;;;7.00;100.00;101185.63;5074194;28;20032;-36
2023/02/22 10:02:47;;;;;;;29.17;21.63;;;;;;;7.02;100.00;101179.00;5075020;28;20090;-36
2023/02/22 10:05:19;;;;;;;25.45;20.35;;;;;;;7.04;100.00;101176.97;5074680;28;20055;-36
2023/02/22 10:07:59;;;;;;;28.17;21.00;;;;;;;7.13;100.00;101172.25;5075190;28;20021;-36
2023/02/22 10:10:32;;;;;;;27.20;20.88;;;;;;;7.14;100.00;101163.16;5075103;28;20368;-36
2023/02/22 10:13:20;;;;;;;29.75;21.52;;;;;;;7.18;100.00;101156.34;5073124;28;20052;-37
2023/02/22 10:16:01;;;;;;;34.53;23.45;;;;;;;7.34;100.00;101152.47;5073871;28;20107;-35
2023/02/22 10:19:00;;;;;;;29.38;22.02;;;;;;;7.42;100.00;101163.88;5074692;28;20030;-36
2023/02/22 10:21:29;;;;;;;26.77;22.05;;;;;;;7.52;100.00;101160.81;5074880;28;20462;-36
2023/02/22 10:24:28;;;;;;;28.40;21.17;;;;;;;7.67;100.00;101157.94;5074008;28;20029;-36
2023/02/22 10:26:56;;;;;;;28.15;20.67;;;;;;;7.74;100.00;101156.91;5073734;28;20112;-36
2023/02/22 10:29:45;;;;;;;29.10;21.50;;;;;;;8.02;100.00;101166.69;5073962;28;20025;-36
2023/02/22 10:32:18;;;;;;;22.10;18.33;;;;;;;8.03;100.00;101143.25;5074684;28;20513;-36
2023/02/22 10:34:47;;;;;;;24.58;19.63;;;;;;;8.19;100.00;101161.69;5073918;28;20020;-36
2023/02/22 10:37:32;;;;;;;22.23;17.92;;;;;;;8.27;100.00;101148.03;5073885;28;20456;-36
2023/02/22 10:40:10;;;;;;;23.50;17.80;;;;;;;8.39;100.00;101159.84;5074145;28;20113;-36
2023/02/22 10:42:36;;;;;;;20.45;16.17;;;;;;;8.33;100.00;101154.44;5073820;28;20475;-37
2023/02/22 10:45:01;;;;;;;21.73;16.17;;;;;;;8.44;100.00;101165.47;5074340;28;20103;-36
2023/02/22 10:47:27;;;;;;;17.40;14.43;;;;;;;8.46;100.00;101165.25;5073774;28;20050;-37
2023/02/22 10:49:57;;;;;;;16.73;14.55;;;;;;;8.45;100.00;101174.38;5074025;28;20278;-37
2023/02/22 10:52:32;;;;;;;16.63;13.30;;;;;;;8.40;100.00;101168.78;5073663;28;20032;-36
2023/02/22 10:54:59;;;;;;;19.23;14.65;;;;;;;8.49;100.00;101167.50;5073658;28;20546;-36
2023/02/22 10:57:32;;;;;;;17.27;14.73;;;;;;;8.55;100.00;101176.66;5073212;28;20150;-36
2023/02/22 11:00:25;;;;;;;16.05;14.23;;;;;;;8.66;100.00;101159.81;5073648;28;20036;-37
2023/02/22 11:03:02;;;;;;;17.75;13.98;;;;;;;8.71;100.00;101154.63;5074072;28;20057;-36
2023/02/22 11:05:46;;;;;;;15.10;13.50;;;;;;;8.79;100.00;101150.88;5074450;28;20043;-37
2023/02/22 11:08:20;;;;;;;15.90;13.40;;;;;;;8.87;100.00;101156.03;5073579;28;20107;-36
2023/02/22 11:10:55;;;;;;;16.70;14.02;;;;;;;8.95;100.00;101158.50;5073828;28;20464;-36
2023/02/22 11:13:26;;;;;;;13.07;11.70;;;;;;;9.07;100.00;101155.97;5074322;28;20025;-36
2023/02/22 11:15:54;;;;;;;12.18;10.98;;;;;;;9.07;100.00;101131.69;5073484;28;20020;-36
2023/02/22 11:18:34;;;;;;;13.05;11.43;;;;;;;9.35;100.00;101153.75;5074052;28;20024;-35